sensor_id;sensor_type;location;lat;lon;timestamp;pressure;altitude;pressure_sealevel;temperature;humidity
24422;BME280;12600;53.326;-6.298;2023-07-20T00:01:13;101494.00;;;17.78;73.50
24422;BME280;12600;53.326;-6.298;2023-07-20T00:04:02;101488.69;;;17.73;73.35
24422;BME280;12600;53.326;-6.298;2023-07-20T00:06:51;101486.25;;;17.72;72.74
24422;BME280;12600;53.326;-6.298;2023-07-20T00:09:42;101494.88;;;17.70;72.57
24422;BME280;12600;53.326;-6.298;2023-07-20T00:12:32;101498.75;;;17.69;72.08
24422;BME280;12600;53.326;-6.298;2023-07-20T00:15:21;101488.72;;;17.65;72.85
24422;BME280;12600;53.326;-6.298;2023-07-20T00:18:11;101495.69;;;17.71;72.39
24422;BME280;12600;53.326;-6.298;2023-07-20T00:21:00;101502.81;;;17.72;72.65
24422;BME280;12600;53.326;-6.298;2023-07-20T00:23:50;101497.78;;;17.74;73.11
24422;BME280;12600;53.326;-6.298;2023-07-20T00:26:41;101491.91;;;17.75;73.46
24422;BME280;12600;53.326;-6.298;2023-07-20T00:29:30;101497.56;;;17.79;73.20
24422;BME280;12600;53.326;-6.298;2023-07-20T00:32:19;101496.09;;;17.81;73.30
24422;BME280;12600;53.326;-6.298;2023-07-20T00:35:10;101489.28;;;17.79;73.12
24422;BME280;12600;53.326;-6.298;2023-07-20T00:37:59;101494.16;;;17.82;73.12
24422;BME280;12600;53.326;-6.298;2023-07-20T00:40:49;101487.66;;;17.78;73.03
24422;BME280;12600;53.326;-6.298;2023-07-20T00:43:39;101500.47;;;17.82;72.79
24422;BME280;12600;53.326;-6.298;2023-07-20T00:46:29;101497.72;;;17.82;73.07
24422;BME280;12600;53.326;-6.298;2023-07-20T00:49:21;101495.94;;;17.78;73.23
24422;BME280;12600;53.326;-6.298;2023-07-20T00:52:11;101492.84;;;17.79;73.24
24422;BME280;12600;53.326;-6.298;2023-07-20T00:55:04;101494.00;;;17.78;73.22
24422;BME280;12600;53.326;-6.298;2023-07-20T00:57:53;101490.16;;;17.71;73.36
24422;BME280;12600;53.326;-6.298;2023-07-20T01:00:44;101489.00;;;17.72;73.54
24422;BME280;12600;53.326;-6.298;2023-07-20T01:03:35;101488.50;;;17.70;73.53
24422;BME280;12600;53.326;-6.298;2023-07-20T01:06:31;101488.50;;;17.70;73.63
24422;BME280;12600;53.326;-6.298;2023-07-20T01:09:28;101488.38;;;17.66;73.65
24422;BME280;12600;53.326;-6.298;2023-07-20T01:12:26;101491.63;;;17.68;73.58
24422;BME280;12600;53.326;-6.298;2023-07-20T01:15:17;101485.81;;;17.61;73.67
24422;BME280;12600;53.326;-6.298;2023-07-20T01:18:07;101492.47;;;17.60;73.82
24422;BME280;12600;53.326;-6.298;2023-07-20T01:21:01;101490.41;;;17.57;74.21
24422;BME280;12600;53.326;-6.298;2023-07-20T01:30:59;101483.22;;;17.56;74.14
24422;BME280;12600;53.326;-6.298;2023-07-20T01:33:56;101485.06;;;17.52;73.91
24422;BME280;12600;53.326;-6.298;2023-07-20T01:36:47;101481.84;;;17.50;74.02
24422;BME280;12600;53.326;-6.298;2023-07-20T01:39:37;101474.19;;;17.47;74.40
24422;BME280;12600;53.326;-6.298;2023-07-20T01:42:28;101482.31;;;17.52;74.09
24422;BME280;12600;53.326;-6.298;2023-07-20T01:45:17;101477.13;;;17.50;73.82
24422;BME280;12600;53.326;-6.298;2023-07-20T01:48:06;101459.81;;;17.41;73.94
24422;BME280;12600;53.326;-6.298;2023-07-20T01:50:57;101476.16;;;17.46;73.96
24422;BME280;12600;53.326;-6.298;2023-07-20T01:53:46;101471.66;;;17.42;73.95
24422;BME280;12600;53.326;-6.298;2023-07-20T01:56:36;101467.59;;;17.39;73.98
24422;BME280;12600;53.326;-6.298;2023-07-20T01:59:26;101461.78;;;17.32;74.32
24422;BME280;12600;53.326;-6.298;2023-07-20T02:02:15;101463.91;;;17.35;74.13
24422;BME280;12600;53.326;-6.298;2023-07-20T02:05:06;101469.41;;;17.35;74.19
24422;BME280;12600;53.326;-6.298;2023-07-20T02:07:57;101471.38;;;17.34;74.31
24422;BME280;12600;53.326;-6.298;2023-07-20T02:10:47;101462.63;;;17.32;74.45
24422;BME280;12600;53.326;-6.298;2023-07-20T02:13:37;101460.16;;;17.31;74.39
24422;BME280;12600;53.326;-6.298;2023-07-20T02:16:26;101459.56;;;17.25;74.36
24422;BME280;12600;53.326;-6.298;2023-07-20T02:19:18;101454.38;;;17.24;74.58
24422;BME280;12600;53.326;-6.298;2023-07-20T02:22:07;101457.47;;;17.22;74.80
24422;BME280;12600;53.326;-6.298;2023-07-20T02:24:58;101458.94;;;17.20;74.83
24422;BME280;12600;53.326;-6.298;2023-07-20T02:27:48;101458.16;;;17.19;74.78
24422;BME280;12600;53.326;-6.298;2023-07-20T02:30:38;101463.19;;;17.17;74.90
24422;BME280;12600;53.326;-6.298;2023-07-20T02:33:28;101463.19;;;17.17;75.13
24422;BME280;12600;53.326;-6.298;2023-07-20T02:36:17;101443.44;;;17.06;75.13
24422;BME280;12600;53.326;-6.298;2023-07-20T02:39:07;101450.03;;;17.14;75.17
24422;BME280;12600;53.326;-6.298;2023-07-20T02:41:58;101445.84;;;17.08;75.22
24422;BME280;12600;53.326;-6.298;2023-07-20T02:44:49;101450.44;;;17.04;75.68
24422;BME280;12600;53.326;-6.298;2023-07-20T02:47:39;101439.25;;;17.00;75.62
24422;BME280;12600;53.326;-6.298;2023-07-20T02:50:29;101444.28;;;16.98;75.51
24422;BME280;12600;53.326;-6.298;2023-07-20T02:53:18;101439.78;;;16.94;75.73
24422;BME280;12600;53.326;-6.298;2023-07-20T02:56:07;101436.53;;;16.92;75.81
24422;BME280;12600;53.326;-6.298;2023-07-20T02:58:58;101427.00;;;16.81;75.53
24422;BME280;12600;53.326;-6.298;2023-07-20T03:01:48;101434.63;;;16.84;75.80
24422;BME280;12600;53.326;-6.298;2023-07-20T03:04:37;101427.19;;;16.75;75.87
24422;BME280;12600;53.326;-6.298;2023-07-20T03:07:28;101423.50;;;16.71;75.84
24422;BME280;12600;53.326;-6.298;2023-07-20T03:10:18;101434.19;;;16.73;75.83
24422;BME280;12600;53.326;-6.298;2023-07-20T03:13:07;101414.06;;;16.64;75.78
24422;BME280;12600;53.326;-6.298;2023-07-20T03:15:58;101439.56;;;16.69;75.72
24422;BME280;12600;53.326;-6.298;2023-07-20T03:18:49;101429.16;;;16.66;76.00
24422;BME280;12600;53.326;-6.298;2023-07-20T03:21:38;101429.00;;;16.63;76.08
24422;BME280;12600;53.326;-6.298;2023-07-20T03:24:29;101425.09;;;16.64;76.28
24422;BME280;12600;53.326;-6.298;2023-07-20T03:27:18;101416.53;;;16.57;76.42
24422;BME280;12600;53.326;-6.298;2023-07-20T03:30:08;101426.59;;;16.61;76.68
24422;BME280;12600;53.326;-6.298;2023-07-20T03:33:00;101412.97;;;16.56;76.76
24422;BME280;12600;53.326;-6.298;2023-07-20T03:35:51;101428.22;;;16.62;76.76
24422;BME280;12600;53.326;-6.298;2023-07-20T03:38:40;101430.16;;;16.62;76.98
24422;BME280;12600;53.326;-6.298;2023-07-20T03:41:30;101429.00;;;16.63;76.88
24422;BME280;12600;53.326;-6.298;2023-07-20T03:44:19;101434.66;;;16.66;77.19
24422;BME280;12600;53.326;-6.298;2023-07-20T03:47:09;101421.22;;;16.65;77.14
24422;BME280;12600;53.326;-6.298;2023-07-20T03:50:00;101421.38;;;16.68;77.25
24422;BME280;12600;53.326;-6.298;2023-07-20T03:52:51;101428.00;;;16.67;76.96
24422;BME280;12600;53.326;-6.298;2023-07-20T03:55:40;101418.63;;;16.60;77.17
24422;BME280;12600;53.326;-6.298;2023-07-20T03:58:30;101423.34;;;16.59;77.46
24422;BME280;12600;53.326;-6.298;2023-07-20T04:01:20;101433.72;;;16.62;77.61
24422;BME280;12600;53.326;-6.298;2023-07-20T04:04:10;101424.19;;;16.51;77.65
24422;BME280;12600;53.326;-6.298;2023-07-20T04:07:00;101432.28;;;16.56;77.85
24422;BME280;12600;53.326;-6.298;2023-07-20T04:09:50;101425.97;;;16.56;77.86
24422;BME280;12600;53.326;-6.298;2023-07-20T04:12:39;101435.38;;;16.55;78.04
24422;BME280;12600;53.326;-6.298;2023-07-20T04:15:28;101433.44;;;16.55;78.14
24422;BME280;12600;53.326;-6.298;2023-07-20T04:18:18;101429.06;;;16.54;77.94
24422;BME280;12600;53.326;-6.298;2023-07-20T04:21:08;101429.38;;;16.53;78.17
24422;BME280;12600;53.326;-6.298;2023-07-20T04:23:59;101420.81;;;16.45;78.49
24422;BME280;12600;53.326;-6.298;2023-07-20T04:26:48;101427.59;;;16.48;78.44
24422;BME280;12600;53.326;-6.298;2023-07-20T04:29:38;101430.53;;;16.43;78.62
24422;BME280;12600;53.326;-6.298;2023-07-20T04:32:27;101426.03;;;16.38;78.63
24422;BME280;12600;53.326;-6.298;2023-07-20T04:35:45;101434.91;;;16.44;78.74
24422;BME280;12600;53.326;-6.298;2023-07-20T04:38:37;101441.56;;;16.43;78.67
24422;BME280;12600;53.326;-6.298;2023-07-20T04:41:33;101437.06;;;16.38;78.72
24422;BME280;12600;53.326;-6.298;2023-07-20T04:44:23;101437.06;;;16.38;78.75
24422;BME280;12600;53.326;-6.298;2023-07-20T04:47:12;101426.34;;;16.37;79.08
24422;BME280;12600;53.326;-6.298;2023-07-20T04:50:01;101423.09;;;16.35;78.94
24422;BME280;12600;53.326;-6.298;2023-07-20T04:52:52;101433.19;;;16.31;78.68
24422;BME280;12600;53.326;-6.298;2023-07-20T04:55:48;101373.25;;;15.93;78.68
24422;BME280;12600;53.326;-6.298;2023-07-20T04:58:42;101426.06;;;16.21;78.72
24422;BME280;12600;53.326;-6.298;2023-07-20T05:01:32;101427.03;;;16.16;79.00
24422;BME280;12600;53.326;-6.298;2023-07-20T05:04:21;101431.09;;;16.19;79.23
24422;BME280;12600;53.326;-6.298;2023-07-20T05:07:10;101430.94;;;16.15;78.95
24422;BME280;12600;53.326;-6.298;2023-07-20T05:10:00;101426.25;;;16.16;79.15
24422;BME280;12600;53.326;-6.298;2023-07-20T05:12:49;101421.53;;;16.16;79.08
24422;BME280;12600;53.326;-6.298;2023-07-20T05:15:40;101422.00;;;16.18;79.27
24422;BME280;12600;53.326;-6.298;2023-07-20T05:18:33;101419.88;;;16.24;79.33
24422;BME280;12600;53.326;-6.298;2023-07-20T05:21:23;101419.22;;;16.27;79.18
24422;BME280;12600;53.326;-6.298;2023-07-20T05:24:13;101404.50;;;16.23;79.13
24422;BME280;12600;53.326;-6.298;2023-07-20T05:27:02;101416.13;;;16.37;79.39
24422;BME280;12600;53.326;-6.298;2023-07-20T05:29:52;101419.19;;;16.44;79.36
24422;BME280;12600;53.326;-6.298;2023-07-20T05:32:42;101402.13;;;16.42;79.22
24422;BME280;12600;53.326;-6.298;2023-07-20T05:35:34;101413.13;;;16.51;79.08
24422;BME280;12600;53.326;-6.298;2023-07-20T05:38:25;101412.16;;;16.56;79.26
24422;BME280;12600;53.326;-6.298;2023-07-20T05:41:14;101408.72;;;16.59;79.34
24422;BME280;12600;53.326;-6.298;2023-07-20T05:44:03;101396.28;;;16.53;79.18
24422;BME280;12600;53.326;-6.298;2023-07-20T05:46:54;101408.22;;;16.65;79.16
24422;BME280;12600;53.326;-6.298;2023-07-20T05:49:46;101401.56;;;16.66;79.50
24422;BME280;12600;53.326;-6.298;2023-07-20T05:52:36;101406.94;;;16.71;79.50
24422;BME280;12600;53.326;-6.298;2023-07-20T05:55:27;101411.31;;;16.72;78.98
24422;BME280;12600;53.326;-6.298;2023-07-20T05:58:16;101408.38;;;16.77;79.15
24422;BME280;12600;53.326;-6.298;2023-07-20T06:01:05;101411.59;;;16.80;78.84
24422;BME280;12600;53.326;-6.298;2023-07-20T06:03:54;101416.94;;;16.85;79.23
24422;BME280;12600;53.326;-6.298;2023-07-20T06:06:45;101406.38;;;16.87;78.98
24422;BME280;12600;53.326;-6.298;2023-07-20T06:09:36;101400.84;;;16.87;79.24
24422;BME280;12600;53.326;-6.298;2023-07-20T06:12:25;101419.09;;;17.00;78.77
24422;BME280;12600;53.326;-6.298;2023-07-20T06:15:31;101413.44;;;16.96;78.37
24422;BME280;12600;53.326;-6.298;2023-07-20T06:18:21;101427.38;;;17.00;78.23
24422;BME280;12600;53.326;-6.298;2023-07-20T06:21:11;101420.41;;;17.02;78.71
24422;BME280;12600;53.326;-6.298;2023-07-20T06:24:02;101420.19;;;17.08;78.18
24422;BME280;12600;53.326;-6.298;2023-07-20T06:26:51;101426.22;;;17.10;77.95
24422;BME280;12600;53.326;-6.298;2023-07-20T06:29:41;101424.72;;;17.12;77.90
24422;BME280;12600;53.326;-6.298;2023-07-20T06:32:33;101422.78;;;17.13;77.11
24422;BME280;12600;53.326;-6.298;2023-07-20T06:35:26;101424.03;;;17.15;77.74
24422;BME280;12600;53.326;-6.298;2023-07-20T06:38:16;101440.94;;;17.14;77.13
24422;BME280;12600;53.326;-6.298;2023-07-20T06:41:09;101439.72;;;17.02;75.82
24422;BME280;12600;53.326;-6.298;2023-07-20T06:44:02;101440.59;;;17.15;77.00
24422;BME280;12600;53.326;-6.298;2023-07-20T06:46:51;101439.28;;;17.21;77.38
24422;BME280;12600;53.326;-6.298;2023-07-20T06:49:40;101434.72;;;17.25;77.25
24422;BME280;12600;53.326;-6.298;2023-07-20T06:52:30;101440.91;;;17.22;77.05
24422;BME280;12600;53.326;-6.298;2023-07-20T06:55:19;101453.09;;;17.21;75.40
24422;BME280;12600;53.326;-6.298;2023-07-20T06:58:12;101440.53;;;17.32;76.56
24422;BME280;12600;53.326;-6.298;2023-07-20T07:01:05;101451.69;;;17.36;75.89
24422;BME280;12600;53.326;-6.298;2023-07-20T07:03:55;101446.91;;;17.45;75.88
24422;BME280;12600;53.326;-6.298;2023-07-20T07:06:45;101454.88;;;17.47;75.22
24422;BME280;12600;53.326;-6.298;2023-07-20T07:09:34;101444.03;;;17.42;73.85
24422;BME280;12600;53.326;-6.298;2023-07-20T07:12:24;101461.00;;;17.52;74.42
24422;BME280;12600;53.326;-6.298;2023-07-20T07:15:16;101457.25;;;17.57;73.71
24422;BME280;12600;53.326;-6.298;2023-07-20T07:18:05;101456.19;;;17.70;74.28
24422;BME280;12600;53.326;-6.298;2023-07-20T07:20:54;101462.50;;;17.71;74.06
24422;BME280;12600;53.326;-6.298;2023-07-20T07:23:45;101448.63;;;17.79;74.59
24422;BME280;12600;53.326;-6.298;2023-07-20T07:26:35;101464.19;;;17.84;73.82
24422;BME280;12600;53.326;-6.298;2023-07-20T07:29:25;101459.84;;;17.95;74.29
24422;BME280;12600;53.326;-6.298;2023-07-20T07:32:18;101450.91;;;17.98;74.18
24422;BME280;12600;53.326;-6.298;2023-07-20T07:35:08;101447.91;;;18.03;73.43
24422;BME280;12600;53.326;-6.298;2023-07-20T07:37:57;101460.28;;;18.18;74.18
24422;BME280;12600;53.326;-6.298;2023-07-20T07:41:06;101453.66;;;18.31;73.96
24422;BME280;12600;53.326;-6.298;2023-07-20T07:43:56;101451.16;;;18.38;73.19
24422;BME280;12600;53.326;-6.298;2023-07-20T07:46:45;101454.97;;;18.46;72.45
24422;BME280;12600;53.326;-6.298;2023-07-20T07:49:36;101449.88;;;18.60;71.44
24422;BME280;12600;53.326;-6.298;2023-07-20T07:52:25;101446.72;;;18.83;72.34
24422;BME280;12600;53.326;-6.298;2023-07-20T07:55:14;101434.81;;;19.07;71.86
24422;BME280;12600;53.326;-6.298;2023-07-20T07:58:05;101443.59;;;19.33;73.10
24422;BME280;12600;53.326;-6.298;2023-07-20T08:00:55;101434.28;;;19.53;69.04
24422;BME280;12600;53.326;-6.298;2023-07-20T08:03:44;101438.41;;;19.72;65.18
24422;BME280;12600;53.326;-6.298;2023-07-20T08:06:36;101428.53;;;20.15;68.59
24422;BME280;12600;53.326;-6.298;2023-07-20T08:09:26;101440.03;;;20.60;69.17
24422;BME280;12600;53.326;-6.298;2023-07-20T08:12:15;101443.78;;;21.00;68.28
24422;BME280;12600;53.326;-6.298;2023-07-20T08:15:10;101443.69;;;21.28;63.25
24422;BME280;12600;53.326;-6.298;2023-07-20T08:17:59;101443.72;;;21.66;65.79
24422;BME280;12600;53.326;-6.298;2023-07-20T08:20:49;101437.72;;;21.84;62.78
24422;BME280;12600;53.326;-6.298;2023-07-20T08:23:41;101447.53;;;22.16;61.42
24422;BME280;12600;53.326;-6.298;2023-07-20T08:26:30;101444.78;;;22.39;59.89
24422;BME280;12600;53.326;-6.298;2023-07-20T08:29:20;101443.72;;;22.70;59.03
24422;BME280;12600;53.326;-6.298;2023-07-20T08:32:09;101443.09;;;22.80;54.61
24422;BME280;12600;53.326;-6.298;2023-07-20T08:34:58;101445.13;;;22.83;51.24
24422;BME280;12600;53.326;-6.298;2023-07-20T08:37:48;101434.44;;;22.85;51.54
24422;BME280;12600;53.326;-6.298;2023-07-20T08:40:43;101412.31;;;22.73;50.81
24422;BME280;12600;53.326;-6.298;2023-07-20T08:43:34;101436.38;;;23.34;53.05
24422;BME280;12600;53.326;-6.298;2023-07-20T08:46:25;101443.16;;;23.63;50.40
24422;BME280;12600;53.326;-6.298;2023-07-20T08:49:17;101444.56;;;23.80;50.58
24422;BME280;12600;53.326;-6.298;2023-07-20T08:52:08;101416.22;;;23.78;49.52
24422;BME280;12600;53.326;-6.298;2023-07-20T08:54:57;101415.81;;;23.76;48.94
24422;BME280;12600;53.326;-6.298;2023-07-20T08:57:50;101416.78;;;23.31;46.38
24422;BME280;12600;53.326;-6.298;2023-07-20T09:00:42;101429.72;;;22.89;47.00
24422;BME280;12600;53.326;-6.298;2023-07-20T09:03:34;101433.28;;;22.86;48.21
24422;BME280;12600;53.326;-6.298;2023-07-20T09:06:27;101441.84;;;22.78;46.15
24422;BME280;12600;53.326;-6.298;2023-07-20T09:09:17;101435.75;;;23.18;47.53
24422;BME280;12600;53.326;-6.298;2023-07-20T09:12:13;101431.88;;;23.26;45.75
24422;BME280;12600;53.326;-6.298;2023-07-20T09:15:07;101417.78;;;23.45;46.43
24422;BME280;12600;53.326;-6.298;2023-07-20T09:18:01;101408.66;;;23.79;46.19
24422;BME280;12600;53.326;-6.298;2023-07-20T09:20:52;101422.25;;;24.21;45.07
24422;BME280;12600;53.326;-6.298;2023-07-20T09:23:41;101416.66;;;24.58;44.60
24422;BME280;12600;53.326;-6.298;2023-07-20T09:26:31;101413.78;;;24.47;43.40
24422;BME280;12600;53.326;-6.298;2023-07-20T09:29:24;101417.16;;;24.26;43.15
24422;BME280;12600;53.326;-6.298;2023-07-20T09:32:19;101415.94;;;23.57;41.57
24422;BME280;12600;53.326;-6.298;2023-07-20T09:35:14;101419.59;;;23.04;42.36
24422;BME280;12600;53.326;-6.298;2023-07-20T09:38:07;101426.09;;;22.63;43.62
24422;BME280;12600;53.326;-6.298;2023-07-20T09:41:00;101430.56;;;22.05;43.86
24422;BME280;12600;53.326;-6.298;2023-07-20T09:43:49;101424.97;;;22.02;44.92
24422;BME280;12600;53.326;-6.298;2023-07-20T09:46:45;101421.03;;;21.64;45.97
24422;BME280;12600;53.326;-6.298;2023-07-20T09:49:41;101414.22;;;21.42;45.54
24422;BME280;12600;53.326;-6.298;2023-07-20T09:52:34;101405.50;;;21.09;46.33
24422;BME280;12600;53.326;-6.298;2023-07-20T09:55:27;101414.81;;;21.01;47.55
24422;BME280;12600;53.326;-6.298;2023-07-20T09:58:18;101412.63;;;20.90;48.13
24422;BME280;12600;53.326;-6.298;2023-07-20T10:01:08;101411.56;;;20.79;49.04
24422;BME280;12600;53.326;-6.298;2023-07-20T10:03:59;101412.72;;;20.78;50.21
24422;BME280;12600;53.326;-6.298;2023-07-20T10:06:55;101341.72;;;20.30;49.98
24422;BME280;12600;53.326;-6.298;2023-07-20T10:09:45;101413.72;;;20.86;50.40
24422;BME280;12600;53.326;-6.298;2023-07-20T10:12:35;101399.53;;;20.91;50.57
24422;BME280;12600;53.326;-6.298;2023-07-20T10:15:27;101396.66;;;21.03;51.04
24422;BME280;12600;53.326;-6.298;2023-07-20T10:18:22;101399.84;;;21.05;50.93
24422;BME280;12600;53.326;-6.298;2023-07-20T10:21:16;101408.56;;;21.04;51.56
24422;BME280;12600;53.326;-6.298;2023-07-20T10:24:11;101404.44;;;20.98;51.93
24422;BME280;12600;53.326;-6.298;2023-07-20T10:27:05;101407.84;;;20.91;51.27
24422;BME280;12600;53.326;-6.298;2023-07-20T10:29:55;101410.03;;;20.82;51.01
24422;BME280;12600;53.326;-6.298;2023-07-20T10:32:46;101399.09;;;20.73;51.37
24422;BME280;12600;53.326;-6.298;2023-07-20T10:35:52;101403.66;;;20.97;51.55
24422;BME280;12600;53.326;-6.298;2023-07-20T10:38:44;101397.63;;;21.11;51.44
24422;BME280;12600;53.326;-6.298;2023-07-20T10:41:42;101401.13;;;21.43;51.98
24422;BME280;12600;53.326;-6.298;2023-07-20T10:44:31;101398.34;;;21.43;48.48
24422;BME280;12600;53.326;-6.298;2023-07-20T10:47:21;101400.59;;;21.57;48.73
24422;BME280;12600;53.326;-6.298;2023-07-20T10:50:12;101408.56;;;21.39;48.58
24422;BME280;12600;53.326;-6.298;2023-07-20T10:53:09;101405.44;;;21.24;51.90
24422;BME280;12600;53.326;-6.298;2023-07-20T10:56:07;101410.16;;;20.70;56.52
24422;BME280;12600;53.326;-6.298;2023-07-20T10:59:00;101415.47;;;20.15;58.69
24422;BME280;12600;53.326;-6.298;2023-07-20T11:01:50;101407.75;;;19.80;59.96
24422;BME280;12600;53.326;-6.298;2023-07-20T11:04:42;101418.56;;;19.70;60.39
24422;BME280;12600;53.326;-6.298;2023-07-20T11:07:38;101421.13;;;19.50;61.93
24422;BME280;12600;53.326;-6.298;2023-07-20T11:10:29;101416.50;;;19.54;62.40
24422;BME280;12600;53.326;-6.298;2023-07-20T11:13:21;101402.19;;;19.52;61.96
24422;BME280;12600;53.326;-6.298;2023-07-20T11:16:12;101391.69;;;19.58;60.59
24422;BME280;12600;53.326;-6.298;2023-07-20T11:19:02;101405.44;;;20.42;61.56
24422;BME280;12600;53.326;-6.298;2023-07-20T11:21:53;101397.78;;;21.18;55.86
24422;BME280;12600;53.326;-6.298;2023-07-20T11:24:54;101393.53;;;22.21;55.29
24422;BME280;12600;53.326;-6.298;2023-07-20T11:27:45;101370.81;;;22.91;53.30
24422;BME280;12600;53.326;-6.298;2023-07-20T11:30:39;101396.03;;;23.58;52.69
24422;BME280;12600;53.326;-6.298;2023-07-20T11:33:30;101392.22;;;23.70;49.46
24422;BME280;12600;53.326;-6.298;2023-07-20T11:36:19;101381.47;;;23.72;49.77
24422;BME280;12600;53.326;-6.298;2023-07-20T11:39:13;101377.25;;;23.55;46.63
24422;BME280;12600;53.326;-6.298;2023-07-20T11:42:03;101385.50;;;23.75;45.92
24422;BME280;12600;53.326;-6.298;2023-07-20T11:44:54;101387.13;;;24.16;45.06
24422;BME280;12600;53.326;-6.298;2023-07-20T11:47:45;101382.47;;;24.75;43.40
24422;BME280;12600;53.326;-6.298;2023-07-20T11:50:40;101373.94;;;25.13;41.19
24422;BME280;12600;53.326;-6.298;2023-07-20T11:53:29;101380.97;;;25.65;39.91
24422;BME280;12600;53.326;-6.298;2023-07-20T11:56:19;101379.91;;;26.09;39.52
24422;BME280;12600;53.326;-6.298;2023-07-20T11:59:09;101375.94;;;26.35;37.87
24422;BME280;12600;53.326;-6.298;2023-07-20T12:02:00;101360.31;;;26.27;37.71
24422;BME280;12600;53.326;-6.298;2023-07-20T12:04:50;101360.75;;;26.39;38.33
24422;BME280;12600;53.326;-6.298;2023-07-20T12:07:42;101363.16;;;26.52;37.29
24422;BME280;12600;53.326;-6.298;2023-07-20T12:10:31;101374.34;;;26.66;36.77
24422;BME280;12600;53.326;-6.298;2023-07-20T12:13:21;101362.31;;;26.80;35.44
24422;BME280;12600;53.326;-6.298;2023-07-20T12:16:12;101355.53;;;26.73;36.17
24422;BME280;12600;53.326;-6.298;2023-07-20T12:19:03;101353.53;;;26.49;36.59
24422;BME280;12600;53.326;-6.298;2023-07-20T12:21:57;101330.22;;;25.70;35.90
24422;BME280;12600;53.326;-6.298;2023-07-20T12:24:52;101350.34;;;25.06;36.71
24422;BME280;12600;53.326;-6.298;2023-07-20T12:27:44;101354.72;;;24.49;38.18
24422;BME280;12600;53.326;-6.298;2023-07-20T12:30:36;101353.03;;;23.96;39.29
24422;BME280;12600;53.326;-6.298;2023-07-20T12:33:25;101350.47;;;23.47;39.70
24422;BME280;12600;53.326;-6.298;2023-07-20T12:36:15;101348.75;;;23.05;40.27
24422;BME280;12600;53.326;-6.298;2023-07-20T12:39:04;101332.34;;;22.74;41.03
24422;BME280;12600;53.326;-6.298;2023-07-20T12:41:55;101348.91;;;22.63;41.41
24422;BME280;12600;53.326;-6.298;2023-07-20T12:44:44;101349.59;;;22.56;41.48
24422;BME280;12600;53.326;-6.298;2023-07-20T12:47:34;101347.88;;;22.75;42.07
24422;BME280;12600;53.326;-6.298;2023-07-20T12:50:23;101349.09;;;22.77;41.77
24422;BME280;12600;53.326;-6.298;2023-07-20T12:53:13;101335.13;;;22.74;40.20
24422;BME280;12600;53.326;-6.298;2023-07-20T12:56:02;101335.78;;;22.90;40.52
24422;BME280;12600;53.326;-6.298;2023-07-20T12:59:13;101328.22;;;22.91;39.81
24422;BME280;12600;53.326;-6.298;2023-07-20T13:02:03;101329.44;;;22.93;40.05
24422;BME280;12600;53.326;-6.298;2023-07-20T13:04:52;101333.19;;;23.04;39.95
24422;BME280;12600;53.326;-6.298;2023-07-20T13:07:42;101324.34;;;22.99;39.86
24422;BME280;12600;53.326;-6.298;2023-07-20T13:10:35;101328.75;;;22.73;38.20
24422;BME280;12600;53.326;-6.298;2023-07-20T13:13:24;101330.28;;;22.44;38.38
24422;BME280;12600;53.326;-6.298;2023-07-20T13:16:15;101333.91;;;22.22;39.09
24422;BME280;12600;53.326;-6.298;2023-07-20T13:19:05;101332.28;;;21.98;39.85
24422;BME280;12600;53.326;-6.298;2023-07-20T13:21:55;101330.16;;;21.91;40.43
24422;BME280;12600;53.326;-6.298;2023-07-20T13:24:55;101330.41;;;21.83;40.92
24422;BME280;12600;53.326;-6.298;2023-07-20T13:27:44;101329.53;;;21.78;41.15
24422;BME280;12600;53.326;-6.298;2023-07-20T13:30:34;101326.97;;;21.70;41.69
24422;BME280;12600;53.326;-6.298;2023-07-20T13:33:25;101323.84;;;21.52;42.34
24422;BME280;12600;53.326;-6.298;2023-07-20T13:36:16;101326.94;;;21.47;43.35
24422;BME280;12600;53.326;-6.298;2023-07-20T13:39:05;101327.16;;;21.58;43.71
24422;BME280;12600;53.326;-6.298;2023-07-20T13:41:55;101329.03;;;21.54;43.53
24422;BME280;12600;53.326;-6.298;2023-07-20T13:44:45;101326.22;;;21.50;43.75
24422;BME280;12600;53.326;-6.298;2023-07-20T13:47:34;101324.69;;;21.17;43.70
24422;BME280;12600;53.326;-6.298;2023-07-20T13:50:26;101338.72;;;21.05;45.51
24422;BME280;12600;53.326;-6.298;2023-07-20T13:53:27;101327.19;;;20.68;46.85
24422;BME280;12600;53.326;-6.298;2023-07-20T13:56:19;101327.97;;;20.37;48.47
24422;BME280;12600;53.326;-6.298;2023-07-20T13:59:09;101336.16;;;20.30;48.87
24422;BME280;12600;53.326;-6.298;2023-07-20T14:01:59;101335.78;;;20.00;50.40
24422;BME280;12600;53.326;-6.298;2023-07-20T14:04:51;101333.38;;;19.98;50.92
24422;BME280;12600;53.326;-6.298;2023-07-20T14:07:47;101329.66;;;19.78;51.23
24422;BME280;12600;53.326;-6.298;2023-07-20T14:10:38;101336.47;;;19.81;51.69
24422;BME280;12600;53.326;-6.298;2023-07-20T14:13:30;101336.09;;;19.67;51.99
24422;BME280;12600;53.326;-6.298;2023-07-20T14:16:34;101339.31;;;19.69;51.78
24422;BME280;12600;53.326;-6.298;2023-07-20T14:19:23;101327.84;;;19.70;51.93
24422;BME280;12600;53.326;-6.298;2023-07-20T14:22:12;101329.13;;;19.89;51.92
24422;BME280;12600;53.326;-6.298;2023-07-20T14:25:04;101320.94;;;19.92;51.74
24422;BME280;12600;53.326;-6.298;2023-07-20T14:27:56;101324.59;;;20.12;51.56
24422;BME280;12600;53.326;-6.298;2023-07-20T14:30:45;101320.66;;;20.29;51.37
24422;BME280;12600;53.326;-6.298;2023-07-20T14:33:35;101320.13;;;20.39;50.95
24422;BME280;12600;53.326;-6.298;2023-07-20T14:36:24;101313.41;;;20.56;50.52
24422;BME280;12600;53.326;-6.298;2023-07-20T14:39:14;101324.13;;;20.73;49.98
24422;BME280;12600;53.326;-6.298;2023-07-20T14:42:06;101321.34;;;20.73;48.92
24422;BME280;12600;53.326;-6.298;2023-07-20T14:44:55;101312.66;;;20.75;48.24
24422;BME280;12600;53.326;-6.298;2023-07-20T14:47:44;101302.44;;;20.79;48.22
24422;BME280;12600;53.326;-6.298;2023-07-20T14:50:37;101310.59;;;21.07;47.76